createdAt,value
2023-04-18T00:01:44.805Z,102318.25
2023-04-18T00:04:13.620Z,102332.50
2023-04-18T00:06:40.861Z,102339.75
2023-04-18T00:09:07.583Z,102349.38
2023-04-18T00:11:34.981Z,102346.00
2023-04-18T00:14:03.385Z,102352.22
2023-04-18T00:16:30.619Z,102354.38
2023-04-18T00:18:57.579Z,102363.91
2023-04-18T00:21:25.727Z,102357.34
2023-04-18T00:23:52.700Z,102356.28
2023-04-18T00:26:19.383Z,102355.63
2023-04-18T00:28:46.162Z,102350.91
2023-04-18T00:31:12.776Z,102343.28
2023-04-18T00:33:39.463Z,102351.78
2023-04-18T00:36:06.345Z,102358.75
2023-04-18T00:38:32.976Z,102355.56
2023-04-18T00:40:59.652Z,102371.75
2023-04-18T00:43:26.868Z,102372.00
2023-04-18T00:45:54.137Z,102368.59
2023-04-18T00:48:21.060Z,102374.03
2023-04-18T00:50:47.773Z,102357.59
2023-04-18T00:53:15.525Z,102368.72
2023-04-18T00:55:42.316Z,102378.84
2023-04-18T00:58:09.383Z,102383.63
2023-04-18T01:00:36.162Z,102380.66
2023-04-18T01:03:03.191Z,102376.19
2023-04-18T01:05:30.041Z,102390.19
2023-04-18T01:08:01.046Z,102381.84
2023-04-18T01:10:28.779Z,102381.75
2023-04-18T01:13:14.982Z,102397.72
2023-04-18T01:15:46.858Z,102394.38
2023-04-18T01:18:17.044Z,102385.94
2023-04-18T01:20:48.949Z,102396.38
2023-04-18T01:23:17.562Z,102391.50
2023-04-18T01:25:45.474Z,102392.47
2023-04-18T01:28:14.361Z,102382.78
2023-04-18T01:30:41.228Z,102392.06
2023-04-18T01:33:07.999Z,102387.25
2023-04-18T01:35:34.756Z,102385.50
2023-04-18T01:38:01.510Z,102381.38
2023-04-18T01:40:28.303Z,102379.31
2023-04-18T01:42:54.927Z,102374.69
2023-04-18T01:45:22.400Z,102386.44
2023-04-18T01:47:49.187Z,102395.22
2023-04-18T01:50:15.934Z,102390.28
2023-04-18T01:52:42.758Z,102397.69
2023-04-18T01:55:09.942Z,102391.41
2023-04-18T01:57:36.956Z,102394.78
2023-04-18T02:00:07.830Z,102381.84
2023-04-18T02:02:34.777Z,102377.31
2023-04-18T02:05:01.770Z,102378.47
2023-04-18T02:07:28.499Z,102379.16
2023-04-18T02:09:55.190Z,102381.00
2023-04-18T02:12:21.801Z,102384.50
2023-04-18T02:14:52.957Z,102369.69
2023-04-18T02:17:21.547Z,102375.38
2023-04-18T02:19:48.368Z,102382.56
2023-04-18T02:22:14.975Z,102394.19
2023-04-18T02:24:41.664Z,102395.44
2023-04-18T02:27:08.419Z,102392.88
2023-04-18T02:29:35.224Z,102409.03
2023-04-18T02:32:01.972Z,102407.19
2023-04-18T02:34:28.883Z,102414.19
2023-04-18T02:36:55.657Z,102402.34
2023-04-18T02:39:22.267Z,102405.72
2023-04-18T02:41:48.956Z,102413.34
2023-04-18T02:44:17.063Z,102416.66
2023-04-18T02:46:43.758Z,102416.94
2023-04-18T02:49:10.589Z,102405.94
2023-04-18T02:51:37.303Z,102403.88
2023-04-18T02:54:03.983Z,102408.41
2023-04-18T02:56:30.691Z,102413.53
2023-04-18T02:58:57.321Z,102420.16
2023-04-18T03:01:24.031Z,102419.31
2023-04-18T03:03:50.918Z,102419.31
2023-04-18T03:06:17.569Z,102420.22
2023-04-18T03:08:44.309Z,102418.72
2023-04-18T03:11:10.954Z,102407.88
2023-04-18T03:13:37.655Z,102411.47
2023-04-18T03:16:04.736Z,102396.88
2023-04-18T03:18:31.474Z,102396.88
2023-04-18T03:20:58.125Z,102408.81
2023-04-18T03:23:24.806Z,102406.34
2023-04-18T03:25:51.586Z,102406.34
2023-04-18T03:28:18.325Z,102403.66
2023-04-18T03:30:45.172Z,102403.66
2023-04-18T03:33:11.938Z,102395.53
2023-04-18T03:35:38.654Z,102407.38
2023-04-18T03:38:05.464Z,102407.47
2023-04-18T03:40:32.169Z,102403.44
2023-04-18T03:43:00.028Z,102411.28
2023-04-18T03:45:26.697Z,102418.16
2023-04-18T03:47:53.569Z,102417.03
2023-04-18T03:50:20.425Z,102422.59
2023-04-18T03:52:48.222Z,102425.69
2023-04-18T03:55:14.949Z,102421.25
2023-04-18T03:57:41.561Z,102424.19
2023-04-18T04:00:08.923Z,102423.66
2023-04-18T04:02:36.935Z,102430.47
2023-04-18T04:05:05.069Z,102428.09
2023-04-18T04:07:32.621Z,102426.44
2023-04-18T04:09:59.303Z,102435.47
2023-04-18T04:12:25.918Z,102427.69
2023-04-18T04:14:52.966Z,102429.75
2023-04-18T04:17:19.667Z,102435.28
2023-04-18T04:19:46.350Z,102433.00
2023-04-18T04:22:13.036Z,102428.81
2023-04-18T04:24:40.462Z,102441.47
2023-04-18T04:27:08.161Z,102441.03
2023-04-18T04:29:35.455Z,102443.09
2023-04-18T04:32:02.222Z,102439.84
2023-04-18T04:34:28.972Z,102429.50
2023-04-18T04:36:55.690Z,102440.63
2023-04-18T04:39:22.332Z,102440.63
2023-04-18T04:41:49.485Z,102443.09
2023-04-18T04:44:17.777Z,102438.97
2023-04-18T04:46:44.814Z,102431.38
2023-04-18T04:49:12.212Z,102439.81
2023-04-18T04:51:40.149Z,102421.09
2023-04-18T04:54:06.852Z,102435.28
2023-04-18T04:56:33.582Z,102439.19
2023-04-18T04:59:00.936Z,102442.69
2023-04-18T05:01:27.650Z,102444.44
2023-04-18T05:03:54.894Z,102441.47
2023-04-18T05:06:22.859Z,102443.09
2023-04-18T05:08:50.770Z,102440.84
2023-04-18T05:11:18.009Z,102440.69
2023-04-18T05:13:44.718Z,102436.41
2023-04-18T05:16:11.573Z,102430.16
2023-04-18T05:18:40.376Z,102436.84
2023-04-18T05:21:07.470Z,102444.19
2023-04-18T05:23:37.327Z,102436.47
2023-04-18T05:26:05.415Z,102447.69
2023-04-18T05:28:32.147Z,102447.69
2023-04-18T05:31:01.732Z,102445.63
2023-04-18T05:33:29.404Z,102448.63
2023-04-18T05:35:56.339Z,102451.41
2023-04-18T05:38:23.358Z,102453.03
2023-04-18T05:40:55.615Z,102456.31
2023-04-18T05:43:22.966Z,102461.06
2023-04-18T05:45:50.652Z,102465.38
2023-04-18T05:48:17.341Z,102466.19
2023-04-18T05:50:43.960Z,102462.28
2023-04-18T05:53:10.863Z,102460.84
2023-04-18T05:55:37.683Z,102464.19
2023-04-18T05:58:04.478Z,102457.81
2023-04-18T06:00:31.544Z,102469.94
2023-04-18T06:02:58.419Z,102465.00
2023-04-18T06:05:25.502Z,102465.00
2023-04-18T06:07:52.426Z,102469.75
2023-04-18T06:10:19.308Z,102482.94
2023-04-18T06:12:46.050Z,102482.94
2023-04-18T06:15:12.778Z,69532.09
2023-04-18T06:17:39.620Z,69532.09
2023-04-18T06:20:07.025Z,69532.09
2023-04-18T06:22:36.364Z,69532.09
2023-04-18T06:25:03.489Z,69532.09
2023-04-18T06:27:31.908Z,69532.09
2023-04-18T06:29:59.114Z,69532.09
2023-04-18T06:32:26.039Z,69532.09
2023-04-18T06:34:53.176Z,69532.09
2023-04-18T06:37:20.239Z,69532.09
2023-04-18T06:39:47.102Z,69532.09
2023-04-18T06:42:13.867Z,69532.09
2023-04-18T06:44:43.060Z,69532.09
2023-04-18T06:47:10.842Z,69532.09
2023-04-18T06:49:37.625Z,69532.09
2023-04-18T06:52:04.374Z,69532.09
2023-04-18T06:54:31.025Z,69532.09
2023-04-18T06:56:58.058Z,69532.09
2023-04-18T06:59:24.648Z,69532.09
2023-04-18T07:01:51.556Z,69532.09
2023-04-18T07:04:18.838Z,69532.09
2023-04-18T07:06:45.853Z,69532.09
2023-04-18T07:09:12.494Z,69532.09
2023-04-18T07:11:40.680Z,69532.09
2023-04-18T07:14:07.363Z,69532.09
2023-04-18T07:16:34.756Z,69532.09
2023-04-18T07:19:01.503Z,69532.09
2023-04-18T07:21:28.389Z,69532.09
2023-04-18T07:23:55.446Z,69532.09
2023-04-18T07:26:22.330Z,69532.09
2023-04-18T07:28:49.587Z,69532.09
2023-04-18T07:31:16.556Z,69532.09
2023-04-18T07:33:43.657Z,69532.09
2023-04-18T07:36:10.913Z,69532.09
2023-04-18T07:38:37.758Z,69532.09
2023-04-18T07:41:04.443Z,69532.09
2023-04-18T07:43:31.148Z,69532.09
2023-04-18T07:45:57.834Z,69532.09
2023-04-18T07:48:27.380Z,69532.09
2023-04-18T07:50:54.270Z,69532.09
2023-04-18T07:53:21.140Z,69532.09
2023-04-18T07:55:47.880Z,69532.09
2023-04-18T07:58:14.673Z,69532.09
2023-04-18T08:00:43.816Z,69532.09
2023-04-18T08:03:12.334Z,69532.09
2023-04-18T08:05:40.635Z,69532.09
2023-04-18T08:08:08.918Z,69532.09
2023-04-18T08:10:36.751Z,69532.09
2023-04-18T08:13:04.138Z,69532.09
2023-04-18T08:15:32.737Z,69532.09
2023-04-18T08:18:01.251Z,69532.09
2023-04-18T08:20:28.222Z,69532.09
2023-04-18T08:25:24.408Z,69532.09
2023-04-18T08:27:51.168Z,69532.09
2023-04-18T08:30:17.888Z,69532.09
2023-04-18T08:32:44.647Z,69532.09
2023-04-18T08:35:11.646Z,69532.09
2023-04-18T08:37:39.277Z,69532.09
2023-04-18T08:40:07.335Z,69532.09
2023-04-18T08:42:35.385Z,69532.09
2023-04-18T08:45:02.697Z,69532.09
2023-04-18T08:47:29.980Z,69532.09
2023-04-18T08:49:57.728Z,69532.09
2023-04-18T08:52:28.353Z,69532.09
2023-04-18T08:54:55.342Z,69532.09
2023-04-18T08:57:23.781Z,69532.09
2023-04-18T08:59:51.213Z,69532.09
2023-04-18T09:02:19.426Z,69532.09
2023-04-18T09:04:49.248Z,69532.09
2023-04-18T09:07:17.303Z,69532.09
2023-04-18T09:09:55.087Z,69532.09
2023-04-18T09:12:24.507Z,69532.09
2023-04-18T09:14:59.745Z,69532.09
2023-04-18T09:17:38.435Z,69532.09
2023-04-18T09:20:06.375Z,69532.09
2023-04-18T09:22:54.309Z,69532.09
2023-04-18T09:25:35.797Z,69532.09
2023-04-18T09:28:04.839Z,69532.09
2023-04-18T09:30:33.108Z,69532.09
2023-04-18T09:33:01.582Z,69532.09
2023-04-18T09:35:28.685Z,69532.09
2023-04-18T09:37:55.706Z,69532.09
2023-04-18T09:40:23.708Z,69532.09
2023-04-18T09:42:56.986Z,69532.09
2023-04-18T09:45:24.907Z,69532.09
2023-04-18T09:47:52.786Z,69532.09
2023-04-18T09:50:21.073Z,69532.09
2023-04-18T09:52:48.714Z,69532.09
2023-04-18T09:55:19.416Z,69532.09
2023-04-18T09:57:48.786Z,69532.09
2023-04-18T10:00:27.246Z,69532.09
2023-04-18T10:03:10.938Z,69532.09
2023-04-18T10:05:40.543Z,69532.09
2023-04-18T10:08:09.600Z,69532.09
2023-04-18T10:10:38.755Z,69532.09
2023-04-18T10:13:08.418Z,69532.09
2023-04-18T10:15:35.256Z,69532.09
2023-04-18T10:18:06.961Z,69532.09
2023-04-18T10:20:35.448Z,69532.09
2023-04-18T10:23:38.775Z,69532.09
2023-04-18T10:26:07.413Z,69532.09
2023-04-18T10:28:53.435Z,69532.09
2023-04-18T10:31:24.766Z,69532.09
2023-04-18T10:34:04.776Z,69532.09
2023-04-18T10:36:33.126Z,69532.09
2023-04-18T10:39:21.887Z,69532.09
2023-04-18T10:41:50.935Z,69532.09
2023-04-18T10:44:22.252Z,69532.09
2023-04-18T10:46:51.981Z,69532.09
2023-04-18T10:49:19.944Z,69532.09
2023-04-18T10:52:00.488Z,69532.09
2023-04-18T10:54:42.135Z,69532.09
2023-04-18T10:57:10.086Z,69532.09
2023-04-18T10:59:43.014Z,69532.09
2023-04-18T11:02:28.876Z,69532.09
2023-04-18T11:05:01.784Z,69532.09
2023-04-18T11:07:36.106Z,69532.09
2023-04-18T11:10:04.266Z,69532.09
2023-04-18T11:12:34.827Z,69532.09
2023-04-18T11:15:09.417Z,69532.09
2023-04-18T11:17:36.299Z,69532.09
2023-04-18T11:20:14.756Z,69532.09
2023-04-18T11:22:54.657Z,69532.09
2023-04-18T11:25:25.425Z,69532.09
2023-04-18T11:27:52.418Z,69532.09
2023-04-18T11:30:19.242Z,69532.09
2023-04-18T11:32:46.429Z,69532.09
2023-04-18T11:35:15.567Z,69532.09
2023-04-18T11:37:43.290Z,69532.09
2023-04-18T11:40:10.446Z,69532.09
2023-04-18T11:42:39.243Z,69532.09
2023-04-18T11:45:13.797Z,69532.09
2023-04-18T11:47:42.840Z,69532.09
2023-04-18T11:50:12.285Z,69532.09
2023-04-18T11:52:41.325Z,69532.09
2023-04-18T11:55:19.535Z,69532.09
2023-04-18T11:57:59.733Z,69532.09
2023-04-18T12:00:34.132Z,69532.09
2023-04-18T12:03:04.574Z,69532.09
2023-04-18T12:05:37.013Z,69532.09
2023-04-18T12:08:17.284Z,69532.09
2023-04-18T12:10:50.442Z,69532.09
2023-04-18T12:13:17.924Z,69532.09
2023-04-18T12:15:46.743Z,69532.09
2023-04-18T12:18:16.661Z,69532.09
2023-04-18T12:20:50.529Z,69532.09
2023-04-18T12:23:30.611Z,69532.09
2023-04-18T12:26:07.745Z,69532.09
2023-04-18T12:28:37.741Z,69532.09
2023-04-18T12:31:07.935Z,69532.09
2023-04-18T12:33:36.869Z,69532.09
2023-04-18T12:36:05.502Z,69532.09
2023-04-18T12:38:32.271Z,69532.09
2023-04-18T12:40:59.011Z,69532.09
2023-04-18T12:43:25.873Z,69532.09
2023-04-18T12:45:52.826Z,69532.09
2023-04-18T12:48:19.629Z,69532.09
2023-04-18T12:50:46.324Z,69532.09
2023-04-18T12:53:12.986Z,69532.09
2023-04-18T12:55:39.724Z,69532.09
2023-04-18T12:58:06.376Z,69532.09
2023-04-18T13:00:33.189Z,69532.09
2023-04-18T13:03:00.223Z,69532.09
2023-04-18T13:05:31.651Z,69532.09
2023-04-18T13:08:15.248Z,69532.09
2023-04-18T13:10:43.496Z,69532.09
2023-04-18T13:13:10.256Z,69532.09
2023-04-18T13:15:37.136Z,69532.09
2023-04-18T13:18:06.328Z,69532.09
2023-04-18T13:20:34.621Z,69532.09
2023-04-18T13:23:04.658Z,69532.09
2023-04-18T13:25:31.487Z,69532.09
2023-04-18T13:27:58.650Z,69532.09
2023-04-18T13:30:25.640Z,69532.09
2023-04-18T13:32:52.503Z,69532.09
2023-04-18T13:35:19.228Z,69532.09
2023-04-18T13:37:46.311Z,69532.09
2023-04-18T13:40:13.416Z,69532.09
2023-04-18T13:42:40.097Z,69532.09
2023-04-18T13:45:07.508Z,69532.09
2023-04-18T13:47:34.846Z,69532.09
2023-04-18T13:50:01.713Z,69532.09
2023-04-18T13:52:28.523Z,69532.09
2023-04-18T13:54:55.214Z,69532.09
2023-04-18T13:57:23.149Z,69532.09
2023-04-18T13:59:49.868Z,69532.09
2023-04-18T14:02:16.744Z,69532.09
2023-04-18T14:04:43.721Z,69532.09
2023-04-18T14:07:10.800Z,69532.09
2023-04-18T14:09:37.456Z,69532.09
2023-04-18T14:12:04.644Z,69532.09
2023-04-18T14:14:31.335Z,69532.09
2023-04-18T14:16:58.041Z,69532.09
2023-04-18T14:19:25.045Z,69532.09
2023-04-18T14:21:51.777Z,69532.09
2023-04-18T14:24:18.545Z,69532.09
2023-04-18T14:26:45.174Z,69532.09
2023-04-18T14:29:12.090Z,69532.09
2023-04-18T14:31:39.072Z,69532.09
2023-04-18T14:34:06.600Z,69532.09
2023-04-18T14:36:33.214Z,69532.09
2023-04-18T14:39:00.046Z,69532.09
2023-04-18T14:41:26.879Z,69532.09
2023-04-18T14:43:53.585Z,69532.09
2023-04-18T14:46:21.460Z,69532.09
2023-04-18T14:48:48.202Z,69532.09
2023-04-18T14:51:16.646Z,69532.09
2023-04-18T14:53:44.579Z,69532.09
2023-04-18T14:56:11.255Z,69532.09
2023-04-18T14:58:37.985Z,69532.09
2023-04-18T15:01:05.060Z,69532.09
2023-04-18T15:03:32.096Z,69532.09
2023-04-18T15:05:59.014Z,69532.09
2023-04-18T15:08:25.858Z,69532.09
2023-04-18T15:10:52.490Z,69532.09
2023-04-18T15:13:19.668Z,69532.09
2023-04-18T15:15:53.505Z,69532.09
2023-04-18T15:18:20.567Z,69532.09
2023-04-18T15:20:47.590Z,69532.09
2023-04-18T15:23:14.762Z,69532.09
2023-04-18T15:25:42.119Z,69532.09
2023-04-18T15:28:09.241Z,69532.09
2023-04-18T15:30:36.151Z,69532.09
2023-04-18T15:33:02.931Z,69532.09
2023-04-18T15:35:30.018Z,69532.09
2023-04-18T15:37:57.484Z,69532.09
2023-04-18T15:40:24.573Z,69532.09
2023-04-18T15:42:53.532Z,69532.09
2023-04-18T15:45:21.406Z,69532.09
2023-04-18T15:47:48.469Z,69532.09
2023-04-18T15:50:16.487Z,69532.09
2023-04-18T15:52:44.091Z,69532.09
2023-04-18T15:55:13.229Z,69532.09
2023-04-18T15:57:41.746Z,69532.09
2023-04-18T16:00:17.663Z,69532.09
2023-04-18T16:02:45.617Z,69532.09
2023-04-18T16:05:13.126Z,69532.09
2023-04-18T16:07:40.713Z,69532.09
2023-04-18T16:10:12.817Z,69532.09
2023-04-18T16:12:40.507Z,69532.09
2023-04-18T16:15:09.296Z,69532.09
2023-04-18T16:17:37.443Z,69532.09
2023-04-18T16:20:09.249Z,69532.09
2023-04-18T16:22:37.061Z,69532.09
2023-04-18T16:25:04.747Z,69532.09
2023-04-18T16:27:31.515Z,69532.09
2023-04-18T16:29:58.219Z,69532.09
2023-04-18T16:32:25.073Z,69532.09
2023-04-18T16:34:51.826Z,69532.09
2023-04-18T16:37:18.585Z,69532.09
2023-04-18T16:39:45.417Z,69532.09
2023-04-18T16:42:13.354Z,69532.09
2023-04-18T16:44:41.570Z,69532.09
2023-04-18T16:47:08.527Z,69532.09
2023-04-18T16:49:35.377Z,69532.09
2023-04-18T16:52:02.248Z,69532.09
2023-04-18T16:54:29.494Z,69532.09
2023-04-18T16:56:57.032Z,69532.09
2023-04-18T16:59:23.796Z,69532.09
2023-04-18T17:01:50.733Z,69532.09
2023-04-18T17:04:18.338Z,69532.09
2023-04-18T17:06:45.309Z,69532.09
2023-04-18T17:09:13.647Z,69532.09
2023-04-18T17:11:41.396Z,69532.09
2023-04-18T17:14:08.918Z,69532.09
2023-04-18T17:16:39.519Z,69532.09
2023-04-18T17:19:06.503Z,69532.09
2023-04-18T17:21:37.621Z,69532.09
2023-04-18T17:24:06.713Z,69532.09
2023-04-18T17:26:34.937Z,69532.09
2023-04-18T17:29:03.576Z,69532.09
2023-04-18T17:31:31.337Z,69532.09
2023-04-18T17:33:58.176Z,69532.09
2023-04-18T17:36:25.040Z,69532.09
2023-04-18T17:38:51.748Z,69532.09
2023-04-18T17:41:19.731Z,69532.09
2023-04-18T17:43:47.222Z,69532.09
2023-04-18T17:46:14.829Z,69532.09
2023-04-18T17:48:41.638Z,69532.09
2023-04-18T17:51:08.307Z,69532.09
2023-04-18T17:53:35.081Z,69532.09
2023-04-18T17:56:03.506Z,69532.09
2023-04-18T17:58:30.438Z,69532.09
2023-04-18T18:00:57.141Z,69532.09
2023-04-18T18:03:24.299Z,69532.09
2023-04-18T18:05:51.869Z,69532.09
2023-04-18T18:08:18.626Z,69532.09
2023-04-18T18:10:47.192Z,69532.09
2023-04-18T18:13:14.084Z,69532.09
2023-04-18T18:15:41.181Z,69532.09
2023-04-18T18:18:07.884Z,69532.09
2023-04-18T18:20:34.710Z,69532.09
2023-04-18T18:23:01.873Z,69532.09
2023-04-18T18:25:28.712Z,69532.09
2023-04-18T18:27:55.508Z,69532.09
2023-04-18T18:30:22.260Z,69532.09
2023-04-18T18:32:49.736Z,69532.09
2023-04-18T18:35:16.586Z,69532.09
2023-04-18T18:37:43.340Z,69532.09
2023-04-18T18:40:10.535Z,69532.09
2023-04-18T18:42:37.382Z,69532.09
2023-04-18T18:45:04.583Z,69532.09
2023-04-18T18:47:31.643Z,69532.09
2023-04-18T18:49:58.316Z,69532.09
2023-04-18T18:52:25.444Z,69532.09
2023-04-18T18:54:53.069Z,69532.09
2023-04-18T18:57:19.740Z,69532.09
2023-04-18T18:59:46.852Z,69532.09
2023-04-18T19:02:13.583Z,69532.09
2023-04-18T19:04:40.643Z,69532.09
2023-04-18T19:07:07.698Z,69532.09
2023-04-18T19:09:35.202Z,69532.09
2023-04-18T19:12:01.873Z,69532.09
2023-04-18T19:14:28.527Z,69532.09
2023-04-18T19:16:55.963Z,69532.09
2023-04-18T19:19:22.705Z,69532.09
2023-04-18T19:21:50.135Z,69532.09
2023-04-18T19:24:17.592Z,69532.09
2023-04-18T19:26:44.353Z,69532.09
2023-04-18T19:29:14.096Z,69532.09
2023-04-18T19:31:43.544Z,69532.09
2023-04-18T19:34:10.947Z,69532.09
2023-04-18T19:36:37.610Z,69532.09
2023-04-18T19:39:04.375Z,69532.09
2023-04-18T19:41:31.073Z,69532.09
2023-04-18T19:43:57.824Z,69532.09
2023-04-18T19:46:24.611Z,69532.09
2023-04-18T19:48:51.360Z,69532.09
2023-04-18T19:51:18.123Z,69532.09
2023-04-18T19:53:45.399Z,69532.09
2023-04-18T19:56:14.264Z,69532.09
2023-04-18T19:58:47.052Z,69532.09
2023-04-18T20:01:15.820Z,69532.09
2023-04-18T20:03:43.099Z,69532.09
2023-04-18T20:06:11.081Z,69532.09
2023-04-18T20:08:41.676Z,69532.09
2023-04-18T20:11:16.372Z,69532.09
2023-04-18T20:13:44.328Z,69532.09
2023-04-18T20:16:12.435Z,69532.09
2023-04-18T20:18:41.661Z,69532.09
2023-04-18T20:21:10.877Z,69532.09
2023-04-18T20:23:38.182Z,69532.09
2023-04-18T20:26:04.892Z,69532.09
2023-04-18T20:28:31.964Z,69532.09
2023-04-18T20:30:58.747Z,69532.09
2023-04-18T20:33:25.529Z,69532.09
2023-04-18T20:35:53.731Z,69532.09
2023-04-18T20:38:25.835Z,69532.09
2023-04-18T20:40:54.256Z,69532.09
2023-04-18T20:43:21.597Z,69532.09
2023-04-18T20:45:51.754Z,69532.09
2023-04-18T20:48:18.727Z,69532.09
2023-04-18T20:50:51.413Z,69532.09
2023-04-18T20:53:20.782Z,69532.09
2023-04-18T20:55:48.427Z,69532.09
2023-04-18T20:58:16.448Z,69532.09
2023-04-18T21:00:44.638Z,69532.09
2023-04-18T21:03:15.620Z,69532.09
2023-04-18T21:05:44.268Z,69532.09
2023-04-18T21:08:11.475Z,69532.09
2023-04-18T21:10:38.340Z,69532.09
2023-04-18T21:13:05.123Z,69532.09
2023-04-18T21:15:31.818Z,69532.09
2023-04-18T21:17:58.709Z,69532.09
2023-04-18T21:20:25.434Z,69532.09
2023-04-18T21:22:52.065Z,69532.09
2023-04-18T21:25:21.218Z,69532.09
2023-04-18T21:27:49.391Z,69532.09
2023-04-18T21:30:16.119Z,69532.09
2023-04-18T21:32:42.750Z,69532.09
2023-04-18T21:35:10.025Z,69532.09
2023-04-18T21:37:36.701Z,69532.09
2023-04-18T21:40:04.569Z,69532.09
2023-04-18T21:42:31.222Z,69532.09
2023-04-18T21:44:57.869Z,69532.09
2023-04-18T21:47:25.906Z,69532.09
2023-04-18T21:49:52.662Z,69532.09
2023-04-18T21:52:19.455Z,69532.09
2023-04-18T21:54:46.265Z,69532.09
2023-04-18T21:57:12.904Z,69532.09
2023-04-18T21:59:39.546Z,69532.09
2023-04-18T22:02:06.346Z,69532.09
2023-04-18T22:04:33.912Z,69532.09
2023-04-18T22:07:00.929Z,69532.09
2023-04-18T22:09:27.686Z,69532.09
2023-04-18T22:11:56.970Z,69532.09
2023-04-18T22:14:24.918Z,69532.09
2023-04-18T22:16:51.902Z,69532.09
2023-04-18T22:19:19.293Z,69532.09
2023-04-18T22:21:46.201Z,69532.09
2023-04-18T22:24:13.115Z,69532.09
2023-04-18T22:26:40.833Z,69532.09
2023-04-18T22:29:07.607Z,69532.09
2023-04-18T22:31:34.252Z,69532.09
2023-04-18T22:34:00.943Z,69532.09
2023-04-18T22:36:27.798Z,69532.09
2023-04-18T22:38:54.470Z,69532.09
2023-04-18T22:41:21.306Z,69532.09
2023-04-18T22:43:47.994Z,69532.09
2023-04-18T22:46:14.673Z,69532.09
2023-04-18T22:48:41.303Z,69532.09
2023-04-18T22:51:08.041Z,69532.09
2023-04-18T22:53:34.662Z,69532.09
2023-04-18T22:56:01.277Z,69532.09
2023-04-18T22:58:27.968Z,69532.09
2023-04-18T23:00:54.838Z,69532.09
2023-04-18T23:03:21.752Z,69532.09
2023-04-18T23:05:48.572Z,69532.09
2023-04-18T23:08:15.450Z,69532.09
2023-04-18T23:10:42.133Z,69532.09
2023-04-18T23:13:08.756Z,69532.09
2023-04-18T23:15:35.764Z,69532.09
2023-04-18T23:18:02.487Z,69532.09
2023-04-18T23:20:29.230Z,69532.09
2023-04-18T23:22:56.104Z,69532.09
2023-04-18T23:25:22.877Z,69532.09
2023-04-18T23:27:49.717Z,69532.09
2023-04-18T23:30:16.394Z,69532.09
2023-04-18T23:32:43.176Z,69532.09
2023-04-18T23:35:11.327Z,69532.09
2023-04-18T23:37:38.038Z,69532.09
2023-04-18T23:40:06.855Z,69532.09
2023-04-18T23:42:37.165Z,69532.09
2023-04-18T23:45:05.847Z,69532.09
2023-04-18T23:47:32.722Z,69532.09
2023-04-18T23:49:59.473Z,69532.09
2023-04-18T23:52:26.112Z,69532.09
2023-04-18T23:54:52.936Z,69532.09
2023-04-18T23:57:19.591Z,69532.09
2023-04-18T23:59:46.302Z,69532.09
